createdAt,value
2023-01-23T00:01:08.581Z,37.05
2023-01-23T00:03:35.207Z,34.42
2023-01-23T00:06:09.133Z,35.45
2023-01-23T00:08:36.611Z,36.30
2023-01-23T00:11:08.377Z,34.00
2023-01-23T00:13:35.697Z,35.72
2023-01-23T00:16:17.816Z,35.88
2023-01-23T00:18:44.842Z,34.97
2023-01-23T00:21:13.791Z,36.53
2023-01-23T00:23:47.693Z,35.58
2023-01-23T00:26:18.523Z,36.13
2023-01-23T00:28:45.970Z,36.63
2023-01-23T00:31:21.122Z,34.15
2023-01-23T00:33:47.927Z,36.08
2023-01-23T00:36:15.252Z,35.80
2023-01-23T00:38:42.343Z,35.40
2023-01-23T00:41:08.943Z,32.50
2023-01-23T00:43:35.561Z,33.90
2023-01-23T00:46:02.284Z,34.72
2023-01-23T00:48:29.013Z,33.83
2023-01-23T00:50:55.670Z,36.35
2023-01-23T00:53:23.090Z,34.67
2023-01-23T00:55:49.806Z,35.83
2023-01-23T00:58:16.751Z,36.53
2023-01-23T01:00:43.447Z,36.70
2023-01-23T01:03:10.568Z,35.60
2023-01-23T01:05:37.689Z,37.95
2023-01-23T01:08:05.414Z,36.30
2023-01-23T01:10:33.911Z,36.58
2023-01-23T01:13:01.872Z,35.30
2023-01-23T01:15:29.228Z,35.90
2023-01-23T01:17:56.363Z,35.92
2023-01-23T01:20:23.863Z,37.35
2023-01-23T01:22:51.337Z,36.55
2023-01-23T01:25:18.547Z,36.10
2023-01-23T01:27:45.929Z,35.05
2023-01-23T01:30:13.680Z,36.25
2023-01-23T01:32:41.267Z,36.20
2023-01-23T01:35:08.833Z,33.75
2023-01-23T01:37:36.650Z,33.17
2023-01-23T01:40:04.220Z,32.75
2023-01-23T01:42:31.261Z,31.70
2023-01-23T01:45:00.032Z,33.50
2023-01-23T01:47:27.354Z,34.70
2023-01-23T01:49:57.832Z,34.20
2023-01-23T01:52:25.052Z,32.45
2023-01-23T01:54:54.160Z,33.15
2023-01-23T01:57:32.514Z,32.00
2023-01-23T02:00:02.989Z,31.13
2023-01-23T02:02:32.360Z,30.58
2023-01-23T02:05:05.545Z,32.35
2023-01-23T02:07:45.189Z,33.42
2023-01-23T02:10:12.707Z,32.22
2023-01-23T02:12:39.962Z,32.35
2023-01-23T02:15:08.105Z,33.13
2023-01-23T02:17:37.719Z,33.08
2023-01-23T02:20:04.842Z,33.33
2023-01-23T02:22:37.407Z,33.55
2023-01-23T02:25:33.863Z,33.67
2023-01-23T02:28:01.840Z,33.30
2023-01-23T02:30:28.904Z,34.30
2023-01-23T02:32:56.154Z,34.28
2023-01-23T02:35:28.393Z,33.63
2023-01-23T02:37:57.883Z,31.20
2023-01-23T02:40:31.570Z,31.95
2023-01-23T02:42:59.423Z,34.78
2023-01-23T02:45:27.420Z,32.33
2023-01-23T02:47:54.453Z,29.98
2023-01-23T02:50:21.693Z,33.22
2023-01-23T02:52:51.539Z,32.38
2023-01-23T02:55:18.632Z,32.10
2023-01-23T02:57:45.675Z,32.22
2023-01-23T03:00:16.496Z,31.30
2023-01-23T03:02:43.895Z,33.10
2023-01-23T03:05:11.267Z,32.10
2023-01-23T03:07:38.460Z,31.65
2023-01-23T03:10:07.746Z,31.55
2023-01-23T03:12:34.772Z,31.75
2023-01-23T03:15:02.587Z,31.02
2023-01-23T03:17:30.123Z,33.47
2023-01-23T03:19:57.731Z,32.17
2023-01-23T03:22:24.872Z,33.55
2023-01-23T03:24:51.992Z,30.85
2023-01-23T03:27:19.030Z,33.65
2023-01-23T03:30:05.199Z,33.03
2023-01-23T03:32:32.238Z,32.30
2023-01-23T03:34:59.326Z,34.10
2023-01-23T03:37:26.421Z,33.28
2023-01-23T03:40:12.295Z,33.72
2023-01-23T03:42:39.333Z,31.70
2023-01-23T03:45:06.811Z,30.30
2023-01-23T03:47:34.148Z,31.52
2023-01-23T03:50:01.140Z,29.60
2023-01-23T03:52:28.314Z,31.25
2023-01-23T03:54:55.387Z,31.15
2023-01-23T03:57:22.389Z,31.67
2023-01-23T03:59:49.429Z,32.05
2023-01-23T04:02:16.488Z,31.02
2023-01-23T04:04:43.522Z,31.30
2023-01-23T04:07:10.581Z,32.20
2023-01-23T04:09:37.622Z,30.58
2023-01-23T04:12:04.747Z,30.38
2023-01-23T04:14:37.089Z,30.15
2023-01-23T04:17:07.382Z,32.58
2023-01-23T04:19:34.719Z,31.30
2023-01-23T04:22:01.768Z,31.80
2023-01-23T04:24:28.835Z,31.85
2023-01-23T04:26:55.905Z,32.10
2023-01-23T04:29:22.923Z,31.20
2023-01-23T04:31:50.016Z,31.75
2023-01-23T04:34:17.110Z,30.80
2023-01-23T04:36:44.120Z,29.35
2023-01-23T04:39:11.188Z,31.13
2023-01-23T04:41:38.191Z,30.40
2023-01-23T04:44:20.704Z,32.60
2023-01-23T04:46:49.828Z,28.98
2023-01-23T04:49:18.620Z,30.50
2023-01-23T04:51:47.990Z,30.35
2023-01-23T04:54:15.517Z,28.08
2023-01-23T04:56:42.796Z,29.15
2023-01-23T04:59:10.092Z,27.70
2023-01-23T05:01:37.554Z,28.27
2023-01-23T05:04:04.982Z,30.60
2023-01-23T05:06:32.309Z,28.52
2023-01-23T05:08:59.566Z,28.30
2023-01-23T05:11:26.647Z,27.42
2023-01-23T05:13:53.760Z,28.70
2023-01-23T05:16:20.793Z,28.15
2023-01-23T05:18:47.838Z,28.48
2023-01-23T05:21:14.903Z,27.75
2023-01-23T05:23:42.005Z,28.15
2023-01-23T05:26:09.064Z,29.33
2023-01-23T05:28:36.113Z,28.83
2023-01-23T05:31:03.558Z,27.10
2023-01-23T05:33:30.660Z,30.30
2023-01-23T05:36:00.944Z,27.45
2023-01-23T05:38:28.052Z,29.58
2023-01-23T05:40:55.140Z,28.13
2023-01-23T05:43:22.204Z,31.55
2023-01-23T05:45:49.423Z,29.00
2023-01-23T05:48:16.490Z,30.00
2023-01-23T05:50:43.534Z,30.20
2023-01-23T05:53:10.554Z,29.67
2023-01-23T05:55:41.052Z,29.25
2023-01-23T05:58:08.108Z,27.90
2023-01-23T06:00:35.192Z,29.17
2023-01-23T06:03:02.291Z,27.52
2023-01-23T06:05:29.384Z,27.55
2023-01-23T06:07:56.450Z,29.63
2023-01-23T06:10:23.544Z,28.73
2023-01-23T06:12:50.581Z,29.95
2023-01-23T06:15:17.607Z,31.15
2023-01-23T06:17:44.715Z,30.25
2023-01-23T06:20:12.478Z,32.63
2023-01-23T06:22:39.584Z,28.00
2023-01-23T06:25:06.918Z,30.25
2023-01-23T06:27:34.087Z,30.88
2023-01-23T06:30:01.224Z,33.13
2023-01-23T06:32:28.240Z,31.25
2023-01-23T06:34:55.262Z,33.67
2023-01-23T06:37:22.261Z,35.58
2023-01-23T06:39:49.264Z,35.20
2023-01-23T06:42:16.302Z,41.17
2023-01-23T06:44:43.405Z,40.72
2023-01-23T06:47:10.494Z,45.53
2023-01-23T06:49:37.882Z,41.30
2023-01-23T06:52:05.072Z,41.30
2023-01-23T06:54:32.086Z,39.38
2023-01-23T06:56:59.135Z,39.40
2023-01-23T06:59:26.187Z,41.45
2023-01-23T07:01:53.327Z,38.47
2023-01-23T07:04:20.420Z,37.55
2023-01-23T07:06:47.500Z,38.20
2023-01-23T07:09:14.503Z,39.63
2023-01-23T07:11:41.549Z,37.88
2023-01-23T07:14:08.541Z,39.67
2023-01-23T07:16:36.212Z,39.47
2023-01-23T07:19:05.234Z,40.25
2023-01-23T07:21:32.556Z,38.58
2023-01-23T07:23:59.598Z,36.78
2023-01-23T07:26:26.752Z,39.47
2023-01-23T07:28:53.942Z,40.58
2023-01-23T07:31:21.048Z,36.90
2023-01-23T07:33:48.166Z,41.83
2023-01-23T07:36:15.294Z,40.30
2023-01-23T07:38:42.416Z,38.03
2023-01-23T07:41:09.619Z,39.45
2023-01-23T07:43:36.617Z,38.00
2023-01-23T07:46:03.656Z,39.17
2023-01-23T07:48:30.786Z,38.97
2023-01-23T07:50:57.920Z,41.67
2023-01-23T07:53:24.965Z,41.75
2023-01-23T07:55:51.939Z,40.33
2023-01-23T07:58:18.928Z,43.85
2023-01-23T08:00:46.062Z,40.13
2023-01-23T08:03:13.217Z,38.17
2023-01-23T08:05:41.782Z,38.85
2023-01-23T08:08:13.807Z,38.40
2023-01-23T08:10:41.508Z,38.88
2023-01-23T08:13:08.554Z,37.47
2023-01-23T08:15:35.653Z,36.58
2023-01-23T08:18:02.696Z,34.97
2023-01-23T08:20:29.692Z,34.15
2023-01-23T08:22:58.866Z,34.33
2023-01-23T08:25:25.932Z,36.40
2023-01-23T08:27:52.949Z,33.35
2023-01-23T08:30:20.223Z,33.38
2023-01-23T08:32:47.419Z,31.00
2023-01-23T08:35:14.614Z,33.38
2023-01-23T08:37:42.243Z,32.85
2023-01-23T08:40:09.810Z,30.42
2023-01-23T08:42:36.879Z,29.95
2023-01-23T08:45:04.581Z,28.60
2023-01-23T08:47:36.288Z,28.88
2023-01-23T08:50:03.726Z,30.17
2023-01-23T08:52:31.158Z,29.95
2023-01-23T08:54:58.144Z,28.27
2023-01-23T08:57:25.209Z,28.48
2023-01-23T08:59:52.273Z,29.00
2023-01-23T09:02:19.423Z,29.15
2023-01-23T09:04:46.652Z,29.27
2023-01-23T09:07:13.712Z,30.45
2023-01-23T09:09:40.694Z,30.30
2023-01-23T09:12:08.282Z,30.38
2023-01-23T09:14:35.359Z,29.42
2023-01-23T09:17:02.392Z,28.70
2023-01-23T09:19:32.152Z,31.95
2023-01-23T09:21:59.255Z,30.92
2023-01-23T09:24:26.338Z,29.15
2023-01-23T09:26:53.380Z,30.05
2023-01-23T09:29:20.395Z,28.38
2023-01-23T09:31:47.460Z,29.15
2023-01-23T09:34:16.973Z,29.55
2023-01-23T09:36:44.253Z,28.23
2023-01-23T09:39:11.781Z,27.13
2023-01-23T09:41:39.236Z,28.40
2023-01-23T09:44:13.300Z,29.10
2023-01-23T09:46:44.871Z,28.83
2023-01-23T09:49:18.359Z,26.55
2023-01-23T09:51:48.493Z,27.70
2023-01-23T09:54:33.975Z,27.75
2023-01-23T09:57:03.272Z,30.05
2023-01-23T09:59:37.611Z,27.73
2023-01-23T10:02:20.262Z,27.02
2023-01-23T10:04:51.625Z,27.58
2023-01-23T10:07:28.157Z,28.83
2023-01-23T10:09:55.162Z,28.67
2023-01-23T10:12:22.175Z,27.63
2023-01-23T10:14:58.673Z,28.83
2023-01-23T10:17:37.692Z,27.65
2023-01-23T10:20:14.768Z,27.58
2023-01-23T10:22:47.891Z,29.17
2023-01-23T10:25:14.904Z,27.55
2023-01-23T10:27:44.650Z,28.40
2023-01-23T10:30:23.634Z,27.73
2023-01-23T10:33:11.870Z,28.80
2023-01-23T10:35:47.620Z,27.95
2023-01-23T10:38:23.775Z,28.23
2023-01-23T10:41:09.574Z,28.00
2023-01-23T10:43:37.192Z,26.48
2023-01-23T10:46:11.162Z,28.13
2023-01-23T10:48:44.076Z,29.00
2023-01-23T10:51:29.863Z,27.10
2023-01-23T10:54:06.307Z,30.58
2023-01-23T10:56:34.703Z,28.80
2023-01-23T10:59:02.921Z,26.15
2023-01-23T11:01:31.425Z,28.92
2023-01-23T11:03:58.758Z,27.35
2023-01-23T11:06:25.915Z,28.83
2023-01-23T11:08:57.242Z,29.08
2023-01-23T11:11:25.811Z,30.83
2023-01-23T11:14:06.962Z,29.90
2023-01-23T11:16:34.694Z,27.42
2023-01-23T11:19:07.829Z,28.02
2023-01-23T11:21:36.350Z,20.10
2023-01-23T11:24:09.476Z,29.02
2023-01-23T11:26:37.580Z,24.38
2023-01-23T11:29:19.603Z,27.85
2023-01-23T11:31:47.065Z,28.83
2023-01-23T11:34:15.086Z,30.40
2023-01-23T11:36:46.205Z,28.13
2023-01-23T11:39:19.243Z,29.23
2023-01-23T11:41:46.851Z,29.35
2023-01-23T11:44:18.600Z,27.95
2023-01-23T11:47:03.325Z,28.73
2023-01-23T11:49:30.301Z,27.25
2023-01-23T11:52:05.849Z,30.77
2023-01-23T11:54:49.253Z,28.88
2023-01-23T11:57:45.847Z,29.25
2023-01-23T12:00:25.238Z,29.60
2023-01-23T12:02:55.088Z,28.20
2023-01-23T12:05:32.801Z,28.00
2023-01-23T12:08:08.905Z,29.35
2023-01-23T12:10:54.135Z,30.80
2023-01-23T12:13:39.699Z,28.05
2023-01-23T12:16:21.868Z,29.15
2023-01-23T12:19:09.018Z,27.55
2023-01-23T12:22:14.736Z,27.98
2023-01-23T12:25:00.532Z,26.63
2023-01-23T12:27:36.641Z,27.55
2023-01-23T12:30:22.561Z,26.38
2023-01-23T12:32:49.698Z,27.85
2023-01-23T12:35:25.738Z,27.45
2023-01-23T12:37:52.760Z,26.98
2023-01-23T12:40:25.385Z,26.35
2023-01-23T12:43:02.693Z,25.65
2023-01-23T12:45:30.912Z,26.40
2023-01-23T12:48:06.024Z,27.35
2023-01-23T12:50:35.810Z,25.25
2023-01-23T12:53:09.568Z,27.35
2023-01-23T12:58:11.118Z,24.67
2023-01-23T13:00:50.398Z,28.20
2023-01-23T13:03:44.864Z,26.23
2023-01-23T13:06:27.385Z,27.35
2023-01-23T13:09:18.545Z,29.35
2023-01-23T13:11:46.102Z,27.45
2023-01-23T13:14:29.145Z,27.52
2023-01-23T13:16:59.140Z,25.98
2023-01-23T13:19:45.714Z,26.33
2023-01-23T13:22:22.472Z,27.08
2023-01-23T13:25:17.097Z,26.83
2023-01-23T13:27:50.447Z,26.45
2023-01-23T13:30:25.054Z,25.20
2023-01-23T13:33:00.553Z,26.45
2023-01-23T13:35:39.840Z,25.00
2023-01-23T13:38:21.879Z,25.40
2023-01-23T13:41:11.278Z,25.88
2023-01-23T13:43:44.315Z,27.08
2023-01-23T13:46:18.365Z,26.20
2023-01-23T14:21:41.803Z,26.05
2023-01-23T14:24:25.415Z,25.80
2023-01-23T14:26:54.335Z,25.90
2023-01-23T14:29:24.929Z,25.80
2023-01-23T14:31:52.265Z,24.95
2023-01-23T14:34:20.761Z,26.08
2023-01-23T14:36:53.629Z,24.52
2023-01-23T14:39:22.320Z,24.10
2023-01-23T14:41:50.314Z,25.35
2023-01-23T14:44:21.702Z,25.17
2023-01-23T14:46:51.764Z,23.98
2023-01-23T14:49:23.074Z,24.35
2023-01-23T14:52:00.197Z,26.13
2023-01-23T14:54:32.545Z,24.02
2023-01-23T14:57:01.307Z,25.27
2023-01-23T14:59:36.618Z,26.63
2023-01-23T15:02:13.189Z,24.65
2023-01-23T15:05:06.818Z,24.07
2023-01-23T15:07:34.394Z,25.50
2023-01-23T15:10:01.413Z,25.95
2023-01-23T15:12:28.603Z,25.75
2023-01-23T15:14:56.483Z,25.00
2023-01-23T15:17:23.663Z,25.05
2023-01-23T15:19:52.391Z,25.52
2023-01-23T15:22:21.920Z,25.05
2023-01-23T15:24:49.264Z,24.80
2023-01-23T15:27:22.666Z,25.70
2023-01-23T15:29:49.964Z,28.30
2023-01-23T15:32:19.720Z,26.40
2023-01-23T15:34:53.613Z,26.45
2023-01-23T15:37:28.485Z,26.73
2023-01-23T15:40:02.303Z,26.25
2023-01-23T15:42:31.180Z,25.50
2023-01-23T15:45:01.186Z,26.35
2023-01-23T15:47:32.322Z,25.98
2023-01-23T15:50:02.943Z,26.80
2023-01-23T15:52:31.600Z,27.30
2023-01-23T15:55:00.740Z,28.23
2023-01-23T15:57:27.990Z,30.60
2023-01-23T15:59:55.066Z,31.85
2023-01-23T16:02:32.917Z,28.85
2023-01-23T16:05:01.673Z,29.33
2023-01-23T16:07:32.331Z,29.77
2023-01-23T16:09:59.353Z,29.13
2023-01-23T16:12:28.666Z,30.05
2023-01-23T16:14:55.984Z,30.20
2023-01-23T16:17:23.397Z,32.03
2023-01-23T16:19:50.641Z,33.30
2023-01-23T16:22:28.946Z,32.67
2023-01-23T16:24:56.369Z,30.88
2023-01-23T16:27:27.563Z,29.42
2023-01-23T16:29:55.048Z,32.63
2023-01-23T16:32:22.282Z,31.83
2023-01-23T16:34:49.727Z,32.30
2023-01-23T16:37:18.100Z,34.00
2023-01-23T16:39:47.139Z,34.25
2023-01-23T16:42:24.940Z,34.22
2023-01-23T16:44:52.207Z,33.35
2023-01-23T16:47:19.574Z,34.60
2023-01-23T16:49:52.703Z,34.58
2023-01-23T16:52:20.934Z,34.45
2023-01-23T16:54:51.961Z,32.85
2023-01-23T16:57:20.751Z,32.78
2023-01-23T16:59:49.865Z,34.08
2023-01-23T17:02:25.321Z,34.97
2023-01-23T17:04:52.368Z,33.58
2023-01-23T17:07:19.981Z,35.85
2023-01-23T17:09:47.569Z,35.22
2023-01-23T17:12:20.822Z,34.83
2023-01-23T17:14:48.901Z,35.42
2023-01-23T17:17:20.356Z,32.72
2023-01-23T17:19:47.527Z,32.63
2023-01-23T17:22:22.982Z,32.78
2023-01-23T17:24:50.145Z,32.95
2023-01-23T17:27:17.179Z,32.97
2023-01-23T17:29:44.189Z,32.53
2023-01-23T17:32:21.818Z,32.03
2023-01-23T17:34:50.564Z,32.25
2023-01-23T17:37:20.413Z,31.27
2023-01-23T17:39:47.500Z,33.10
2023-01-23T17:42:14.663Z,31.58
2023-01-23T17:44:41.871Z,31.73
2023-01-23T17:47:11.039Z,31.02
2023-01-23T17:49:38.441Z,29.70
2023-01-23T17:52:06.153Z,31.15
2023-01-23T17:54:33.216Z,30.63
2023-01-23T17:57:00.278Z,29.98
2023-01-23T17:59:27.437Z,30.42
2023-01-23T18:01:54.689Z,29.80
2023-01-23T18:04:22.765Z,31.27
2023-01-23T18:06:50.461Z,31.08
2023-01-23T18:09:18.762Z,31.42
2023-01-23T18:11:51.960Z,30.02
2023-01-23T18:14:25.227Z,30.33
2023-01-23T18:16:53.604Z,32.60
2023-01-23T18:19:21.902Z,32.30
2023-01-23T18:21:50.080Z,31.75
2023-01-23T18:24:24.165Z,32.53
2023-01-23T18:26:59.149Z,32.50
2023-01-23T18:29:30.374Z,32.78
2023-01-23T18:32:08.267Z,32.22
2023-01-23T18:34:51.899Z,33.55
2023-01-23T18:37:39.865Z,34.42
2023-01-23T18:40:06.939Z,34.65
2023-01-23T18:42:45.969Z,34.05
2023-01-23T18:45:20.722Z,35.33
2023-01-23T18:47:53.844Z,35.05
2023-01-23T18:50:22.907Z,38.20
2023-01-23T18:53:06.788Z,39.15
2023-01-23T18:55:39.682Z,38.72
2023-01-23T18:58:15.551Z,39.10
2023-01-23T19:00:50.321Z,39.10
2023-01-23T19:03:18.359Z,40.58
2023-01-23T19:05:46.178Z,40.65
2023-01-23T19:08:28.036Z,41.58
2023-01-23T19:10:56.393Z,40.67
2023-01-23T19:13:29.609Z,40.83
2023-01-23T19:16:08.005Z,43.67
2023-01-23T19:18:40.028Z,39.75
2023-01-23T19:21:13.898Z,40.78
2023-01-23T19:23:54.929Z,40.97
2023-01-23T19:26:22.248Z,37.65
2023-01-23T19:28:50.658Z,42.58
2023-01-23T19:31:28.213Z,42.30
2023-01-23T19:33:55.608Z,42.72
2023-01-23T19:36:23.637Z,42.28
2023-01-23T19:38:52.455Z,39.45
2023-01-23T19:41:19.650Z,40.80
2023-01-23T19:43:50.702Z,45.13
2023-01-23T19:46:18.191Z,44.05
2023-01-23T19:48:45.309Z,43.15
2023-01-23T19:51:13.792Z,43.97
2023-01-23T19:53:41.138Z,42.08
2023-01-23T19:56:09.435Z,43.97
2023-01-23T19:58:36.462Z,44.65
2023-01-23T20:01:04.160Z,42.55
2023-01-23T20:03:31.231Z,42.35
2023-01-23T20:05:59.547Z,43.03
2023-01-23T20:08:26.583Z,43.67
2023-01-23T20:10:53.590Z,44.70
2023-01-23T20:13:20.601Z,41.63
2023-01-23T20:15:49.981Z,43.10
2023-01-23T20:18:17.240Z,43.17
2023-01-23T20:20:45.474Z,42.75
2023-01-23T20:23:12.590Z,44.97
2023-01-23T20:25:39.801Z,44.33
2023-01-23T20:28:07.944Z,43.13
2023-01-23T20:30:35.069Z,44.70
2023-01-23T20:33:03.276Z,44.40
2023-01-23T20:35:30.476Z,43.30
2023-01-23T20:37:58.479Z,43.08
2023-01-23T20:40:27.401Z,43.83
2023-01-23T20:42:54.496Z,45.28
2023-01-23T20:45:21.905Z,45.72
2023-01-23T20:47:49.325Z,45.75
2023-01-23T20:50:16.560Z,45.63
2023-01-23T20:53:02.316Z,44.75
2023-01-23T20:55:29.315Z,44.05
2023-01-23T20:58:15.257Z,43.95
2023-01-23T21:00:44.365Z,45.20
2023-01-23T21:03:11.396Z,42.67
2023-01-23T21:05:38.540Z,45.55
2023-01-23T21:08:05.619Z,43.55
2023-01-23T21:10:32.630Z,43.72
2023-01-23T21:12:59.652Z,44.42
2023-01-23T21:15:26.942Z,44.10
2023-01-23T21:17:53.983Z,45.13
2023-01-23T21:20:21.021Z,42.50
2023-01-23T21:22:48.205Z,41.88
2023-01-23T21:25:15.411Z,44.70
2023-01-23T21:27:42.426Z,43.95
2023-01-23T21:30:09.860Z,41.65
2023-01-23T21:32:36.950Z,42.95
2023-01-23T21:35:04.038Z,44.20
2023-01-23T21:37:31.085Z,40.75
2023-01-23T21:39:58.118Z,44.17
2023-01-23T21:42:25.176Z,41.45
2023-01-23T21:44:54.994Z,43.40
2023-01-23T21:47:22.939Z,44.63
2023-01-23T21:49:51.547Z,46.10
2023-01-23T21:52:18.645Z,43.65
2023-01-23T21:54:45.709Z,45.85
2023-01-23T21:57:12.760Z,43.13
2023-01-23T21:59:40.059Z,43.30
2023-01-23T22:02:07.039Z,45.60
2023-01-23T22:04:34.173Z,44.47
2023-01-23T22:07:01.295Z,45.22
2023-01-23T22:09:28.357Z,45.35
2023-01-23T22:11:55.694Z,42.97
2023-01-23T22:14:22.889Z,42.22
2023-01-23T22:16:50.850Z,46.88
2023-01-23T22:19:22.587Z,43.33
2023-01-23T22:21:51.494Z,44.85
2023-01-23T22:24:18.630Z,45.35
2023-01-23T22:26:45.686Z,43.80
2023-01-23T22:29:15.773Z,45.35
2023-01-23T22:31:43.418Z,46.97
2023-01-23T22:34:11.036Z,44.58
2023-01-23T22:36:38.119Z,41.88
2023-01-23T22:39:05.238Z,43.78
2023-01-23T22:41:32.761Z,43.45
2023-01-23T22:43:59.793Z,43.25
2023-01-23T22:46:27.463Z,42.35
2023-01-23T22:48:54.520Z,40.55
2023-01-23T22:51:24.628Z,39.33
2023-01-23T22:53:52.411Z,40.72
2023-01-23T22:56:19.494Z,41.15
2023-01-23T22:58:47.033Z,39.72
2023-01-23T23:01:14.411Z,41.28
2023-01-23T23:03:41.652Z,39.75
2023-01-23T23:06:10.301Z,40.78
2023-01-23T23:08:37.427Z,41.70
2023-01-23T23:11:06.077Z,42.85
2023-01-23T23:13:34.418Z,43.08
2023-01-23T23:16:04.739Z,38.75
2023-01-23T23:18:31.885Z,41.92
2023-01-23T23:21:00.108Z,41.70
2023-01-23T23:23:27.184Z,41.70
2023-01-23T23:25:55.004Z,42.30
2023-01-23T23:28:22.903Z,39.22
2023-01-23T23:30:50.284Z,39.72
2023-01-23T23:33:17.420Z,37.72
2023-01-23T23:35:44.803Z,39.75
2023-01-23T23:38:12.321Z,38.92
2023-01-23T23:40:39.679Z,40.63
2023-01-23T23:43:06.910Z,39.83
2023-01-23T23:45:33.920Z,41.72
2023-01-23T23:48:02.147Z,43.47
2023-01-23T23:50:29.367Z,41.10
2023-01-23T23:52:56.558Z,41.22
2023-01-23T23:55:23.804Z,42.03
2023-01-23T23:57:50.882Z,44.20
